KLDM/LDM METAR and TAF weather

Enter ICAO airport designator
Station Type Date Time Source
KLDM METAR 2020/09/18 22:35 UTC NOAA

KLDM 182235Z AUTO 02007KT 10SM CLR 12/01 A3036 RMK AO2 T01220013


Station Type Date Time Source
KLDM Decoded METAR 2020/09/18 22:35 UTC NOAA

Ludington, Mason County Airport, MI, United States (KLDM) 43-58N 86-24W
Sep 18, 2020 - 06:35 PM EDT / 2020.09.18 2235 UTC
Wind: from the NNE (020 degrees) at 8 MPH (7 KT):0
Visibility: 10 mile(s):0
Sky conditions: clear
Temperature: 54.0 F (12.2 C)
Dew Point: 34.3 F (1.3 C)
Relative Humidity: 47%
Pressure (altimeter): 30.36 in. Hg (1028 hPa)
ob: KLDM 182235Z AUTO 02007KT 10SM CLR 12/01 A3036 RMK AO2 T01220013
cycle: 22

Station Type Date Time Source
KLDM TAF UTC NOAA

Error!

Example: see airport list